Adrian, Texas
Current Conditions -  °F | °C
As of 12:35 AM on Wednesday 26 Nov 2014 (Local Time) from KHRX Reporting Station
Clear Clear  
Wind Chill: -2°   Ceiling: Unl
Heat Index:   Visibility: 10mi
Dew Point: -7°   Wind: 10mph
Humidity: 50%   Direction: 240°WSW
Pressure: 30.04"   Gusts: NA
Location:  35.27°N, 102.67°W
Report Text: KHRX 260635Z AUTO 24009KT 10SM CLR 03/M07 A3004 RMK AO2 T00251070
Loading
Personal Weather Stations






























Interactive Weather Map New forecast layout! Learn more

10-Day Weather Forecast

Advertisements
Track Severe Weather on mobile